sensor_id;sensor_type;location;lat;lon;timestamp;P1;durP1;ratioP1;P2;durP2;ratioP2
65545;SDS011;52177;55.968;37.498;2023-12-04T00:00:27;8.70;;;5.57;;
65545;SDS011;52177;55.968;37.498;2023-12-04T00:00:58;8.07;;;5.80;;
65545;SDS011;52177;55.968;37.498;2023-12-04T00:01:28;9.25;;;6.03;;
65545;SDS011;52177;55.968;37.498;2023-12-04T00:01:58;9.18;;;6.45;;
65545;SDS011;52177;55.968;37.498;2023-12-04T00:02:29;8.95;;;6.40;;
65545;SDS011;52177;55.968;37.498;2023-12-04T00:02:59;10.38;;;6.93;;
65545;SDS011;52177;55.968;37.498;2023-12-04T00:03:30;10.40;;;7.22;;
65545;SDS011;52177;55.968;37.498;2023-12-04T00:04:01;10.00;;;6.90;;
65545;SDS011;52177;55.968;37.498;2023-12-04T00:04:32;10.93;;;6.90;;
65545;SDS011;52177;55.968;37.498;2023-12-04T00:05:02;10.43;;;7.93;;
65545;SDS011;52177;55.968;37.498;2023-12-04T00:05:33;10.35;;;6.80;;
65545;SDS011;52177;55.968;37.498;2023-12-04T00:06:03;10.23;;;6.82;;
65545;SDS011;52177;55.968;37.498;2023-12-04T00:06:34;10.88;;;7.15;;
65545;SDS011;52177;55.968;37.498;2023-12-04T00:07:05;10.98;;;6.85;;
65545;SDS011;52177;55.968;37.498;2023-12-04T00:07:35;10.77;;;7.10;;
65545;SDS011;52177;55.968;37.498;2023-12-04T00:08:06;9.07;;;6.90;;
65545;SDS011;52177;55.968;37.498;2023-12-04T00:08:36;9.43;;;6.28;;
65545;SDS011;52177;55.968;37.498;2023-12-04T00:09:07;9.77;;;6.90;;
65545;SDS011;52177;55.968;37.498;2023-12-04T00:09:38;9.57;;;6.82;;
65545;SDS011;52177;55.968;37.498;2023-12-04T00:10:08;11.02;;;6.82;;
65545;SDS011;52177;55.968;37.498;2023-12-04T00:10:39;9.18;;;6.30;;
65545;SDS011;52177;55.968;37.498;2023-12-04T00:11:10;7.57;;;6.10;;
65545;SDS011;52177;55.968;37.498;2023-12-04T00:11:40;8.35;;;6.13;;
65545;SDS011;52177;55.968;37.498;2023-12-04T00:12:11;8.85;;;6.65;;
65545;SDS011;52177;55.968;37.498;2023-12-04T00:12:41;9.25;;;6.28;;
65545;SDS011;52177;55.968;37.498;2023-12-04T00:13:12;8.07;;;6.38;;
65545;SDS011;52177;55.968;37.498;2023-12-04T00:13:42;8.38;;;6.07;;
65545;SDS011;52177;55.968;37.498;2023-12-04T00:14:13;8.25;;;6.00;;
65545;SDS011;52177;55.968;37.498;2023-12-04T00:14:43;8.13;;;6.20;;
65545;SDS011;52177;55.968;37.498;2023-12-04T00:15:14;9.70;;;6.90;;
65545;SDS011;52177;55.968;37.498;2023-12-04T00:15:44;8.52;;;6.63;;
65545;SDS011;52177;55.968;37.498;2023-12-04T00:16:15;9.32;;;6.53;;
65545;SDS011;52177;55.968;37.498;2023-12-04T00:16:45;9.43;;;6.65;;
65545;SDS011;52177;55.968;37.498;2023-12-04T00:17:16;8.15;;;5.90;;
65545;SDS011;52177;55.968;37.498;2023-12-04T00:17:47;7.35;;;5.82;;
65545;SDS011;52177;55.968;37.498;2023-12-04T00:18:17;8.57;;;6.65;;
65545;SDS011;52177;55.968;37.498;2023-12-04T00:18:48;9.13;;;6.72;;
65545;SDS011;52177;55.968;37.498;2023-12-04T00:19:18;8.10;;;6.03;;
65545;SDS011;52177;55.968;37.498;2023-12-04T00:19:48;9.02;;;6.38;;
65545;SDS011;52177;55.968;37.498;2023-12-04T00:20:19;8.70;;;6.20;;
65545;SDS011;52177;55.968;37.498;2023-12-04T00:20:49;9.52;;;6.70;;
65545;SDS011;52177;55.968;37.498;2023-12-04T00:21:20;7.88;;;6.05;;
65545;SDS011;52177;55.968;37.498;2023-12-04T00:21:50;7.65;;;6.25;;
65545;SDS011;52177;55.968;37.498;2023-12-04T00:22:21;7.50;;;5.95;;
65545;SDS011;52177;55.968;37.498;2023-12-04T00:22:51;8.90;;;6.22;;
65545;SDS011;52177;55.968;37.498;2023-12-04T00:23:22;9.13;;;6.07;;
65545;SDS011;52177;55.968;37.498;2023-12-04T00:23:52;7.80;;;6.20;;
65545;SDS011;52177;55.968;37.498;2023-12-04T00:24:23;8.55;;;5.78;;
65545;SDS011;52177;55.968;37.498;2023-12-04T00:24:53;7.05;;;5.70;;
65545;SDS011;52177;55.968;37.498;2023-12-04T00:25:24;9.60;;;6.35;;
65545;SDS011;52177;55.968;37.498;2023-12-04T00:25:54;8.20;;;6.03;;
65545;SDS011;52177;55.968;37.498;2023-12-04T00:26:25;9.38;;;6.25;;
65545;SDS011;52177;55.968;37.498;2023-12-04T00:26:56;7.15;;;5.30;;
65545;SDS011;52177;55.968;37.498;2023-12-04T00:27:26;7.53;;;5.90;;
65545;SDS011;52177;55.968;37.498;2023-12-04T00:27:57;7.78;;;6.10;;
65545;SDS011;52177;55.968;37.498;2023-12-04T00:28:28;7.30;;;5.50;;
65545;SDS011;52177;55.968;37.498;2023-12-04T00:28:58;7.88;;;6.03;;
65545;SDS011;52177;55.968;37.498;2023-12-04T00:29:29;7.18;;;5.55;;
65545;SDS011;52177;55.968;37.498;2023-12-04T00:29:59;7.18;;;5.63;;
65545;SDS011;52177;55.968;37.498;2023-12-04T00:30:30;8.05;;;5.32;;
65545;SDS011;52177;55.968;37.498;2023-12-04T00:31:01;7.80;;;6.07;;
65545;SDS011;52177;55.968;37.498;2023-12-04T00:31:31;7.22;;;5.68;;
65545;SDS011;52177;55.968;37.498;2023-12-04T00:32:02;8.38;;;5.85;;
65545;SDS011;52177;55.968;37.498;2023-12-04T00:32:32;10.02;;;6.63;;
65545;SDS011;52177;55.968;37.498;2023-12-04T00:33:03;8.98;;;5.82;;
65545;SDS011;52177;55.968;37.498;2023-12-04T00:33:33;7.72;;;6.00;;
65545;SDS011;52177;55.968;37.498;2023-12-04T00:34:04;8.52;;;5.85;;
65545;SDS011;52177;55.968;37.498;2023-12-04T00:34:34;8.52;;;6.20;;
65545;SDS011;52177;55.968;37.498;2023-12-04T00:35:05;8.00;;;6.28;;
65545;SDS011;52177;55.968;37.498;2023-12-04T00:35:35;8.70;;;6.40;;
65545;SDS011;52177;55.968;37.498;2023-12-04T00:36:06;7.82;;;5.88;;
65545;SDS011;52177;55.968;37.498;2023-12-04T00:36:37;9.70;;;5.93;;
65545;SDS011;52177;55.968;37.498;2023-12-04T00:37:07;10.20;;;6.78;;
65545;SDS011;52177;55.968;37.498;2023-12-04T00:37:38;9.30;;;5.85;;
65545;SDS011;52177;55.968;37.498;2023-12-04T00:38:08;8.60;;;6.18;;
65545;SDS011;52177;55.968;37.498;2023-12-04T00:38:39;9.10;;;6.55;;
65545;SDS011;52177;55.968;37.498;2023-12-04T00:39:09;7.95;;;6.05;;
65545;SDS011;52177;55.968;37.498;2023-12-04T00:39:40;8.93;;;5.90;;
65545;SDS011;52177;55.968;37.498;2023-12-04T00:40:10;9.52;;;6.53;;
65545;SDS011;52177;55.968;37.498;2023-12-04T00:40:41;7.20;;;5.55;;
65545;SDS011;52177;55.968;37.498;2023-12-04T00:41:11;8.95;;;5.95;;
65545;SDS011;52177;55.968;37.498;2023-12-04T00:41:42;9.35;;;6.35;;
65545;SDS011;52177;55.968;37.498;2023-12-04T00:42:12;8.25;;;6.55;;
65545;SDS011;52177;55.968;37.498;2023-12-04T00:42:43;7.47;;;5.80;;
65545;SDS011;52177;55.968;37.498;2023-12-04T00:43:13;8.10;;;5.90;;
65545;SDS011;52177;55.968;37.498;2023-12-04T00:43:44;9.65;;;6.00;;
65545;SDS011;52177;55.968;37.498;2023-12-04T00:44:14;8.15;;;5.70;;
65545;SDS011;52177;55.968;37.498;2023-12-04T00:44:45;9.05;;;6.30;;
65545;SDS011;52177;55.968;37.498;2023-12-04T00:45:15;8.38;;;6.05;;
65545;SDS011;52177;55.968;37.498;2023-12-04T00:45:45;9.70;;;6.72;;
65545;SDS011;52177;55.968;37.498;2023-12-04T00:46:16;8.38;;;6.35;;
65545;SDS011;52177;55.968;37.498;2023-12-04T00:46:46;8.10;;;5.65;;
65545;SDS011;52177;55.968;37.498;2023-12-04T00:47:17;7.75;;;5.65;;
65545;SDS011;52177;55.968;37.498;2023-12-04T00:47:47;10.18;;;6.45;;
65545;SDS011;52177;55.968;37.498;2023-12-04T00:48:18;7.25;;;6.10;;
65545;SDS011;52177;55.968;37.498;2023-12-04T00:48:48;8.40;;;6.25;;
65545;SDS011;52177;55.968;37.498;2023-12-04T00:49:19;7.55;;;5.53;;
65545;SDS011;52177;55.968;37.498;2023-12-04T00:49:49;7.55;;;5.65;;
65545;SDS011;52177;55.968;37.498;2023-12-04T00:50:19;9.30;;;5.75;;
65545;SDS011;52177;55.968;37.498;2023-12-04T00:50:51;7.05;;;5.75;;
65545;SDS011;52177;55.968;37.498;2023-12-04T00:51:21;7.57;;;5.70;;
65545;SDS011;52177;55.968;37.498;2023-12-04T00:51:52;7.90;;;5.95;;
65545;SDS011;52177;55.968;37.498;2023-12-04T00:52:22;8.15;;;5.75;;
65545;SDS011;52177;55.968;37.498;2023-12-04T00:52:56;7.43;;;5.55;;
65545;SDS011;52177;55.968;37.498;2023-12-04T00:53:26;7.75;;;5.47;;
65545;SDS011;52177;55.968;37.498;2023-12-04T00:53:56;8.18;;;5.78;;
65545;SDS011;52177;55.968;37.498;2023-12-04T00:54:27;8.98;;;6.68;;
65545;SDS011;52177;55.968;37.498;2023-12-04T00:54:57;8.23;;;5.97;;
65545;SDS011;52177;55.968;37.498;2023-12-04T00:55:28;7.03;;;5.72;;
65545;SDS011;52177;55.968;37.498;2023-12-04T00:55:58;7.97;;;6.22;;
65545;SDS011;52177;55.968;37.498;2023-12-04T00:56:29;8.82;;;5.85;;
65545;SDS011;52177;55.968;37.498;2023-12-04T00:56:59;9.07;;;5.93;;
65545;SDS011;52177;55.968;37.498;2023-12-04T00:57:30;8.88;;;6.00;;
65545;SDS011;52177;55.968;37.498;2023-12-04T00:58:00;7.80;;;5.90;;
65545;SDS011;52177;55.968;37.498;2023-12-04T00:58:30;8.20;;;6.38;;
65545;SDS011;52177;55.968;37.498;2023-12-04T00:59:01;7.65;;;5.72;;
65545;SDS011;52177;55.968;37.498;2023-12-04T00:59:33;10.25;;;6.30;;
65545;SDS011;52177;55.968;37.498;2023-12-04T01:00:04;10.48;;;6.55;;
65545;SDS011;52177;55.968;37.498;2023-12-04T01:00:35;7.85;;;5.80;;
65545;SDS011;52177;55.968;37.498;2023-12-04T01:01:06;7.90;;;6.05;;
65545;SDS011;52177;55.968;37.498;2023-12-04T01:01:36;8.30;;;6.45;;
65545;SDS011;52177;55.968;37.498;2023-12-04T01:02:07;8.05;;;6.05;;
65545;SDS011;52177;55.968;37.498;2023-12-04T01:02:38;8.07;;;6.15;;
65545;SDS011;52177;55.968;37.498;2023-12-04T01:03:08;7.45;;;6.07;;
65545;SDS011;52177;55.968;37.498;2023-12-04T01:03:39;9.25;;;5.75;;
65545;SDS011;52177;55.968;37.498;2023-12-04T01:04:10;7.97;;;6.20;;
65545;SDS011;52177;55.968;37.498;2023-12-04T01:04:40;8.63;;;6.50;;
65545;SDS011;52177;55.968;37.498;2023-12-04T01:05:14;10.63;;;6.18;;
65545;SDS011;52177;55.968;37.498;2023-12-04T01:05:44;8.23;;;6.53;;
65545;SDS011;52177;55.968;37.498;2023-12-04T01:06:21;7.97;;;6.07;;
65545;SDS011;52177;55.968;37.498;2023-12-04T01:06:55;8.25;;;6.07;;
65545;SDS011;52177;55.968;37.498;2023-12-04T01:07:25;8.95;;;6.18;;
65545;SDS011;52177;55.968;37.498;2023-12-04T01:07:57;8.13;;;6.05;;
65545;SDS011;52177;55.968;37.498;2023-12-04T01:08:27;8.23;;;6.22;;
65545;SDS011;52177;55.968;37.498;2023-12-04T01:08:58;10.15;;;6.20;;
65545;SDS011;52177;55.968;37.498;2023-12-04T01:09:28;9.00;;;6.28;;
65545;SDS011;52177;55.968;37.498;2023-12-04T01:09:58;8.45;;;6.20;;
65545;SDS011;52177;55.968;37.498;2023-12-04T01:10:29;8.48;;;5.70;;
65545;SDS011;52177;55.968;37.498;2023-12-04T01:10:59;8.65;;;6.43;;
65545;SDS011;52177;55.968;37.498;2023-12-04T01:11:30;8.80;;;6.18;;
65545;SDS011;52177;55.968;37.498;2023-12-04T01:12:00;8.50;;;5.60;;
65545;SDS011;52177;55.968;37.498;2023-12-04T01:12:31;9.38;;;6.65;;
65545;SDS011;52177;55.968;37.498;2023-12-04T01:13:01;7.47;;;5.78;;
65545;SDS011;52177;55.968;37.498;2023-12-04T01:13:32;8.18;;;6.00;;
65545;SDS011;52177;55.968;37.498;2023-12-04T01:14:02;8.82;;;6.30;;
65545;SDS011;52177;55.968;37.498;2023-12-04T01:14:33;8.18;;;6.10;;
65545;SDS011;52177;55.968;37.498;2023-12-04T01:15:03;9.73;;;7.00;;
65545;SDS011;52177;55.968;37.498;2023-12-04T01:15:34;10.38;;;6.65;;
65545;SDS011;52177;55.968;37.498;2023-12-04T01:16:05;8.07;;;6.15;;
65545;SDS011;52177;55.968;37.498;2023-12-04T01:16:36;9.77;;;6.00;;
65545;SDS011;52177;55.968;37.498;2023-12-04T01:17:06;9.73;;;6.75;;
65545;SDS011;52177;55.968;37.498;2023-12-04T01:17:37;9.38;;;6.50;;
65545;SDS011;52177;55.968;37.498;2023-12-04T01:18:08;10.00;;;7.30;;
65545;SDS011;52177;55.968;37.498;2023-12-04T01:18:38;9.15;;;6.60;;
65545;SDS011;52177;55.968;37.498;2023-12-04T01:19:09;9.13;;;6.70;;
65545;SDS011;52177;55.968;37.498;2023-12-04T01:19:40;9.52;;;6.43;;
65545;SDS011;52177;55.968;37.498;2023-12-04T01:20:10;10.10;;;7.60;;
65545;SDS011;52177;55.968;37.498;2023-12-04T01:20:41;9.68;;;7.38;;
65545;SDS011;52177;55.968;37.498;2023-12-04T01:21:11;8.85;;;6.40;;
65545;SDS011;52177;55.968;37.498;2023-12-04T01:21:42;10.05;;;6.97;;
65545;SDS011;52177;55.968;37.498;2023-12-04T01:22:12;8.88;;;6.82;;
65545;SDS011;52177;55.968;37.498;2023-12-04T01:22:48;9.13;;;7.05;;
65545;SDS011;52177;55.968;37.498;2023-12-04T01:23:22;10.23;;;6.88;;
65545;SDS011;52177;55.968;37.498;2023-12-04T01:23:52;8.98;;;6.57;;
65545;SDS011;52177;55.968;37.498;2023-12-04T01:24:23;9.15;;;6.35;;
65545;SDS011;52177;55.968;37.498;2023-12-04T01:24:53;7.45;;;6.10;;
65545;SDS011;52177;55.968;37.498;2023-12-04T01:25:24;9.00;;;6.60;;
65545;SDS011;52177;55.968;37.498;2023-12-04T01:25:54;9.82;;;7.05;;
65545;SDS011;52177;55.968;37.498;2023-12-04T01:26:25;8.63;;;6.30;;
65545;SDS011;52177;55.968;37.498;2023-12-04T01:26:55;10.18;;;6.40;;
65545;SDS011;52177;55.968;37.498;2023-12-04T01:27:25;8.48;;;6.32;;
65545;SDS011;52177;55.968;37.498;2023-12-04T01:27:56;8.43;;;6.63;;
65545;SDS011;52177;55.968;37.498;2023-12-04T01:28:26;9.07;;;6.22;;
65545;SDS011;52177;55.968;37.498;2023-12-04T01:28:57;10.48;;;6.65;;
65545;SDS011;52177;55.968;37.498;2023-12-04T01:29:27;7.65;;;5.63;;
65545;SDS011;52177;55.968;37.498;2023-12-04T01:29:59;10.55;;;7.15;;
65545;SDS011;52177;55.968;37.498;2023-12-04T01:30:29;7.80;;;6.15;;
65545;SDS011;52177;55.968;37.498;2023-12-04T01:30:59;8.68;;;6.20;;
65545;SDS011;52177;55.968;37.498;2023-12-04T01:31:30;9.05;;;6.38;;
65545;SDS011;52177;55.968;37.498;2023-12-04T01:32:00;9.25;;;6.03;;
65545;SDS011;52177;55.968;37.498;2023-12-04T01:32:31;8.75;;;5.95;;
65545;SDS011;52177;55.968;37.498;2023-12-04T01:33:01;10.05;;;6.95;;
65545;SDS011;52177;55.968;37.498;2023-12-04T01:33:32;8.10;;;6.30;;
65545;SDS011;52177;55.968;37.498;2023-12-04T01:34:02;9.70;;;6.78;;
65545;SDS011;52177;55.968;37.498;2023-12-04T01:34:33;9.50;;;6.65;;
65545;SDS011;52177;55.968;37.498;2023-12-04T01:35:03;8.50;;;6.43;;
65545;SDS011;52177;55.968;37.498;2023-12-04T01:35:34;8.95;;;6.55;;
65545;SDS011;52177;55.968;37.498;2023-12-04T01:36:05;9.80;;;6.40;;
65545;SDS011;52177;55.968;37.498;2023-12-04T01:36:39;9.57;;;6.63;;
65545;SDS011;52177;55.968;37.498;2023-12-04T01:37:10;9.23;;;6.00;;
65545;SDS011;52177;55.968;37.498;2023-12-04T01:37:41;8.85;;;6.47;;
65545;SDS011;52177;55.968;37.498;2023-12-04T01:38:12;8.63;;;6.55;;
65545;SDS011;52177;55.968;37.498;2023-12-04T01:38:42;9.90;;;6.82;;
65545;SDS011;52177;55.968;37.498;2023-12-04T01:39:13;8.23;;;6.40;;
65545;SDS011;52177;55.968;37.498;2023-12-04T01:39:43;10.18;;;6.18;;
65545;SDS011;52177;55.968;37.498;2023-12-04T01:40:14;9.57;;;6.47;;
65545;SDS011;52177;55.968;37.498;2023-12-04T01:40:44;9.63;;;6.72;;
65545;SDS011;52177;55.968;37.498;2023-12-04T01:41:15;9.82;;;6.85;;
65545;SDS011;52177;55.968;37.498;2023-12-04T01:41:45;8.90;;;6.55;;
65545;SDS011;52177;55.968;37.498;2023-12-04T01:42:16;8.38;;;6.25;;
65545;SDS011;52177;55.968;37.498;2023-12-04T01:42:46;8.55;;;5.85;;
65545;SDS011;52177;55.968;37.498;2023-12-04T01:43:17;11.60;;;6.85;;
65545;SDS011;52177;55.968;37.498;2023-12-04T01:43:48;12.55;;;6.88;;
65545;SDS011;52177;55.968;37.498;2023-12-04T01:44:18;10.70;;;6.80;;
65545;SDS011;52177;55.968;37.498;2023-12-04T01:44:49;10.80;;;6.97;;
65545;SDS011;52177;55.968;37.498;2023-12-04T01:45:19;8.50;;;5.70;;
65545;SDS011;52177;55.968;37.498;2023-12-04T01:45:50;8.15;;;6.32;;
65545;SDS011;52177;55.968;37.498;2023-12-04T01:46:22;10.15;;;6.75;;
65545;SDS011;52177;55.968;37.498;2023-12-04T01:46:53;10.48;;;7.03;;
65545;SDS011;52177;55.968;37.498;2023-12-04T01:47:23;8.90;;;6.05;;
65545;SDS011;52177;55.968;37.498;2023-12-04T01:47:54;9.80;;;6.53;;
65545;SDS011;52177;55.968;37.498;2023-12-04T01:48:25;12.02;;;6.60;;
65545;SDS011;52177;55.968;37.498;2023-12-04T01:48:56;8.82;;;6.20;;
65545;SDS011;52177;55.968;37.498;2023-12-04T01:49:28;7.53;;;5.65;;
65545;SDS011;52177;55.968;37.498;2023-12-04T01:49:58;10.15;;;6.45;;
65545;SDS011;52177;55.968;37.498;2023-12-04T01:50:29;7.97;;;5.63;;
65545;SDS011;52177;55.968;37.498;2023-12-04T01:51:00;11.52;;;6.93;;
65545;SDS011;52177;55.968;37.498;2023-12-04T01:51:35;8.63;;;5.97;;
65545;SDS011;52177;55.968;37.498;2023-12-04T01:52:06;8.60;;;6.30;;
65545;SDS011;52177;55.968;37.498;2023-12-04T01:52:37;10.10;;;6.35;;
65545;SDS011;52177;55.968;37.498;2023-12-04T01:53:08;9.45;;;7.03;;
65545;SDS011;52177;55.968;37.498;2023-12-04T01:53:38;9.43;;;6.35;;
65545;SDS011;52177;55.968;37.498;2023-12-04T01:54:10;8.75;;;6.70;;
65545;SDS011;52177;55.968;37.498;2023-12-04T01:54:41;18.35;;;7.25;;
65545;SDS011;52177;55.968;37.498;2023-12-04T01:55:12;10.48;;;6.78;;
65545;SDS011;52177;55.968;37.498;2023-12-04T01:55:45;9.95;;;7.05;;
65545;SDS011;52177;55.968;37.498;2023-12-04T01:56:16;8.38;;;5.90;;
65545;SDS011;52177;55.968;37.498;2023-12-04T01:56:47;9.32;;;6.88;;
65545;SDS011;52177;55.968;37.498;2023-12-04T01:57:19;11.00;;;6.78;;
65545;SDS011;52177;55.968;37.498;2023-12-04T01:57:50;10.77;;;6.22;;
65545;SDS011;52177;55.968;37.498;2023-12-04T01:58:20;9.02;;;6.97;;
65545;SDS011;52177;55.968;37.498;2023-12-04T01:58:51;9.27;;;6.03;;
65545;SDS011;52177;55.968;37.498;2023-12-04T01:59:21;8.07;;;6.07;;
65545;SDS011;52177;55.968;37.498;2023-12-04T01:59:52;9.63;;;6.90;;
65545;SDS011;52177;55.968;37.498;2023-12-04T02:00:23;9.35;;;6.75;;
65545;SDS011;52177;55.968;37.498;2023-12-04T02:00:54;9.60;;;6.72;;
65545;SDS011;52177;55.968;37.498;2023-12-04T02:01:25;10.85;;;7.10;;
65545;SDS011;52177;55.968;37.498;2023-12-04T02:01:57;9.68;;;7.15;;
65545;SDS011;52177;55.968;37.498;2023-12-04T02:02:28;9.20;;;6.80;;
65545;SDS011;52177;55.968;37.498;2023-12-04T02:02:59;9.00;;;6.82;;
65545;SDS011;52177;55.968;37.498;2023-12-04T02:03:30;10.55;;;7.15;;
65545;SDS011;52177;55.968;37.498;2023-12-04T02:04:00;8.35;;;6.60;;
65545;SDS011;52177;55.968;37.498;2023-12-04T02:04:32;12.00;;;6.15;;
65545;SDS011;52177;55.968;37.498;2023-12-04T02:05:02;10.65;;;6.55;;
65545;SDS011;52177;55.968;37.498;2023-12-04T02:05:35;11.25;;;6.93;;
65545;SDS011;52177;55.968;37.498;2023-12-04T02:06:07;9.60;;;6.45;;
65545;SDS011;52177;55.968;37.498;2023-12-04T02:06:40;9.77;;;6.53;;
65545;SDS011;52177;55.968;37.498;2023-12-04T02:07:10;10.50;;;7.28;;
65545;SDS011;52177;55.968;37.498;2023-12-04T02:07:41;10.40;;;7.60;;
65545;SDS011;52177;55.968;37.498;2023-12-04T02:08:12;10.88;;;7.50;;
65545;SDS011;52177;55.968;37.498;2023-12-04T02:08:42;9.63;;;6.95;;
65545;SDS011;52177;55.968;37.498;2023-12-04T02:09:13;11.73;;;7.18;;
65545;SDS011;52177;55.968;37.498;2023-12-04T02:09:46;12.38;;;7.68;;
65545;SDS011;52177;55.968;37.498;2023-12-04T02:10:16;10.40;;;6.32;;
65545;SDS011;52177;55.968;37.498;2023-12-04T02:10:47;10.55;;;7.40;;
65545;SDS011;52177;55.968;37.498;2023-12-04T02:11:17;10.27;;;7.68;;
65545;SDS011;52177;55.968;37.498;2023-12-04T02:11:48;10.75;;;7.32;;
65545;SDS011;52177;55.968;37.498;2023-12-04T02:12:18;10.27;;;7.13;;
65545;SDS011;52177;55.968;37.498;2023-12-04T02:12:49;10.88;;;7.55;;
65545;SDS011;52177;55.968;37.498;2023-12-04T02:13:20;10.75;;;7.35;;
65545;SDS011;52177;55.968;37.498;2023-12-04T02:13:51;8.43;;;6.97;;
65545;SDS011;52177;55.968;37.498;2023-12-04T02:14:21;9.70;;;7.25;;
65545;SDS011;52177;55.968;37.498;2023-12-04T02:14:52;11.20;;;7.45;;
65545;SDS011;52177;55.968;37.498;2023-12-04T02:15:22;9.70;;;7.10;;
65545;SDS011;52177;55.968;37.498;2023-12-04T02:15:53;10.25;;;7.18;;
65545;SDS011;52177;55.968;37.498;2023-12-04T02:16:24;8.98;;;6.68;;
65545;SDS011;52177;55.968;37.498;2023-12-04T02:16:58;10.18;;;7.38;;
65545;SDS011;52177;55.968;37.498;2023-12-04T02:17:31;9.85;;;6.68;;
65545;SDS011;52177;55.968;37.498;2023-12-04T02:18:03;9.82;;;7.60;;
65545;SDS011;52177;55.968;37.498;2023-12-04T02:18:34;15.45;;;7.65;;
65545;SDS011;52177;55.968;37.498;2023-12-04T02:19:07;10.75;;;7.18;;
65545;SDS011;52177;55.968;37.498;2023-12-04T02:19:38;9.32;;;7.03;;
65545;SDS011;52177;55.968;37.498;2023-12-04T02:20:09;10.68;;;7.07;;
65545;SDS011;52177;55.968;37.498;2023-12-04T02:20:42;9.80;;;7.25;;
65545;SDS011;52177;55.968;37.498;2023-12-04T02:21:13;11.32;;;7.55;;
65545;SDS011;52177;55.968;37.498;2023-12-04T02:21:43;8.95;;;6.60;;
65545;SDS011;52177;55.968;37.498;2023-12-04T02:22:14;10.50;;;7.32;;
65545;SDS011;52177;55.968;37.498;2023-12-04T02:22:44;10.27;;;7.18;;
65545;SDS011;52177;55.968;37.498;2023-12-04T02:23:15;9.57;;;6.72;;
65545;SDS011;52177;55.968;37.498;2023-12-04T02:23:49;11.27;;;7.15;;
65545;SDS011;52177;55.968;37.498;2023-12-04T02:24:21;9.82;;;7.15;;
65545;SDS011;52177;55.968;37.498;2023-12-04T02:24:51;9.18;;;6.60;;
65545;SDS011;52177;55.968;37.498;2023-12-04T02:25:22;8.43;;;5.60;;
65545;SDS011;52177;55.968;37.498;2023-12-04T02:25:54;10.90;;;6.97;;
65545;SDS011;52177;55.968;37.498;2023-12-04T02:27:33;9.15;;;6.40;;
65545;SDS011;52177;55.968;37.498;2023-12-04T02:28:09;8.68;;;5.80;;
65545;SDS011;52177;55.968;37.498;2023-12-04T02:28:44;10.55;;;6.47;;
65545;SDS011;52177;55.968;37.498;2023-12-04T02:29:22;9.27;;;7.00;;
65545;SDS011;52177;55.968;37.498;2023-12-04T02:29:59;10.25;;;6.82;;
65545;SDS011;52177;55.968;37.498;2023-12-04T02:30:31;11.15;;;6.68;;
65545;SDS011;52177;55.968;37.498;2023-12-04T02:31:06;10.57;;;7.07;;
65545;SDS011;52177;55.968;37.498;2023-12-04T02:31:39;9.88;;;6.85;;
65545;SDS011;52177;55.968;37.498;2023-12-04T02:32:11;11.15;;;7.25;;
65545;SDS011;52177;55.968;37.498;2023-12-04T02:32:47;7.75;;;5.95;;
65545;SDS011;52177;55.968;37.498;2023-12-04T02:33:18;9.05;;;6.63;;
65545;SDS011;52177;55.968;37.498;2023-12-04T02:33:54;10.13;;;6.82;;
65545;SDS011;52177;55.968;37.498;2023-12-04T02:34:26;12.10;;;6.80;;
65545;SDS011;52177;55.968;37.498;2023-12-04T02:35:00;9.75;;;7.47;;
65545;SDS011;52177;55.968;37.498;2023-12-04T02:35:34;8.38;;;6.43;;
65545;SDS011;52177;55.968;37.498;2023-12-04T02:36:06;12.50;;;6.70;;
65545;SDS011;52177;55.968;37.498;2023-12-04T02:36:38;10.30;;;7.07;;
65545;SDS011;52177;55.968;37.498;2023-12-04T02:37:11;11.32;;;7.25;;
65545;SDS011;52177;55.968;37.498;2023-12-04T02:37:44;9.75;;;6.40;;
65545;SDS011;52177;55.968;37.498;2023-12-04T02:38:15;9.02;;;6.78;;
65545;SDS011;52177;55.968;37.498;2023-12-04T02:38:46;8.43;;;6.82;;
65545;SDS011;52177;55.968;37.498;2023-12-04T02:39:16;10.38;;;7.55;;
65545;SDS011;52177;55.968;37.498;2023-12-04T02:39:47;9.52;;;6.65;;
65545;SDS011;52177;55.968;37.498;2023-12-04T02:40:19;9.65;;;7.22;;
65545;SDS011;52177;55.968;37.498;2023-12-04T02:40:50;9.82;;;7.30;;
65545;SDS011;52177;55.968;37.498;2023-12-04T02:41:20;9.52;;;6.63;;
65545;SDS011;52177;55.968;37.498;2023-12-04T02:41:51;11.32;;;7.18;;
65545;SDS011;52177;55.968;37.498;2023-12-04T02:42:22;10.05;;;7.20;;
65545;SDS011;52177;55.968;37.498;2023-12-04T02:42:54;11.38;;;6.93;;
65545;SDS011;52177;55.968;37.498;2023-12-04T02:43:25;10.75;;;6.57;;
65545;SDS011;52177;55.968;37.498;2023-12-04T02:43:55;10.00;;;6.70;;
65545;SDS011;52177;55.968;37.498;2023-12-04T02:44:26;8.95;;;6.90;;
65545;SDS011;52177;55.968;37.498;2023-12-04T02:44:56;9.52;;;7.30;;
65545;SDS011;52177;55.968;37.498;2023-12-04T02:45:27;9.77;;;7.45;;
65545;SDS011;52177;55.968;37.498;2023-12-04T02:45:57;9.05;;;6.75;;
65545;SDS011;52177;55.968;37.498;2023-12-04T02:46:28;10.85;;;6.70;;
65545;SDS011;52177;55.968;37.498;2023-12-04T02:46:58;10.07;;;7.10;;
65545;SDS011;52177;55.968;37.498;2023-12-04T02:47:28;11.00;;;7.82;;
65545;SDS011;52177;55.968;37.498;2023-12-04T02:47:59;11.48;;;7.50;;
65545;SDS011;52177;55.968;37.498;2023-12-04T02:48:29;8.32;;;6.78;;
65545;SDS011;52177;55.968;37.498;2023-12-04T02:49:00;10.07;;;7.57;;
65545;SDS011;52177;55.968;37.498;2023-12-04T02:49:30;11.75;;;7.45;;
65545;SDS011;52177;55.968;37.498;2023-12-04T02:50:01;10.60;;;7.05;;
65545;SDS011;52177;55.968;37.498;2023-12-04T02:50:31;10.48;;;6.82;;
65545;SDS011;52177;55.968;37.498;2023-12-04T02:51:02;10.48;;;7.55;;
65545;SDS011;52177;55.968;37.498;2023-12-04T02:51:33;10.80;;;7.30;;
65545;SDS011;52177;55.968;37.498;2023-12-04T02:52:04;9.85;;;7.05;;
65545;SDS011;52177;55.968;37.498;2023-12-04T02:52:34;9.48;;;7.03;;
65545;SDS011;52177;55.968;37.498;2023-12-04T02:53:05;9.05;;;7.50;;
65545;SDS011;52177;55.968;37.498;2023-12-04T02:53:35;11.57;;;7.90;;
65545;SDS011;52177;55.968;37.498;2023-12-04T02:54:06;12.45;;;7.90;;
65545;SDS011;52177;55.968;37.498;2023-12-04T02:54:36;9.38;;;7.47;;
65545;SDS011;52177;55.968;37.498;2023-12-04T02:55:07;9.80;;;6.97;;
65545;SDS011;52177;55.968;37.498;2023-12-04T02:55:37;11.40;;;8.05;;
65545;SDS011;52177;55.968;37.498;2023-12-04T02:56:08;10.30;;;7.45;;
65545;SDS011;52177;55.968;37.498;2023-12-04T02:56:39;8.73;;;7.10;;
65545;SDS011;52177;55.968;37.498;2023-12-04T02:57:10;11.15;;;7.75;;
65545;SDS011;52177;55.968;37.498;2023-12-04T02:57:40;11.10;;;7.72;;
65545;SDS011;52177;55.968;37.498;2023-12-04T02:58:10;10.45;;;7.50;;
65545;SDS011;52177;55.968;37.498;2023-12-04T02:58:41;10.00;;;7.57;;
65545;SDS011;52177;55.968;37.498;2023-12-04T02:59:11;13.20;;;8.50;;
65545;SDS011;52177;55.968;37.498;2023-12-04T02:59:42;10.45;;;7.55;;
65545;SDS011;52177;55.968;37.498;2023-12-04T03:00:12;10.35;;;7.43;;
65545;SDS011;52177;55.968;37.498;2023-12-04T03:00:43;10.35;;;6.70;;
65545;SDS011;52177;55.968;37.498;2023-12-04T03:01:13;10.52;;;7.07;;
65545;SDS011;52177;55.968;37.498;2023-12-04T03:01:44;11.15;;;7.82;;
65545;SDS011;52177;55.968;37.498;2023-12-04T03:02:14;9.45;;;7.03;;
65545;SDS011;52177;55.968;37.498;2023-12-04T03:02:45;11.40;;;7.55;;
65545;SDS011;52177;55.968;37.498;2023-12-04T03:03:15;11.32;;;7.63;;
65545;SDS011;52177;55.968;37.498;2023-12-04T03:03:46;9.98;;;7.15;;
65545;SDS011;52177;55.968;37.498;2023-12-04T03:04:16;10.02;;;7.22;;